sensor_id;sensor_type;location;lat;lon;timestamp;pressure;altitude;pressure_sealevel;temperature;humidity
79221;BME280;68648;52.114;5.424;2023-04-30T00:00:41;102490.16;;;5.80;82.34
79221;BME280;68648;52.114;5.424;2023-04-30T00:03:07;102489.50;;;5.75;82.68
79221;BME280;68648;52.114;5.424;2023-04-30T00:05:34;102496.34;;;5.79;82.52
79221;BME280;68648;52.114;5.424;2023-04-30T00:08:03;102499.69;;;5.82;82.36
79221;BME280;68648;52.114;5.424;2023-04-30T00:10:30;102486.56;;;5.82;83.08
79221;BME280;68648;52.114;5.424;2023-04-30T00:12:57;102489.88;;;5.86;82.50
79221;BME280;68648;52.114;5.424;2023-04-30T00:15:23;102484.47;;;5.90;82.94
79221;BME280;68648;52.114;5.424;2023-04-30T00:17:50;102486.25;;;5.90;82.75
79221;BME280;68648;52.114;5.424;2023-04-30T00:20:18;102485.84;;;5.79;82.38
79221;BME280;68648;52.114;5.424;2023-04-30T00:22:45;102488.16;;;5.66;82.97
79221;BME280;68648;52.114;5.424;2023-04-30T00:25:11;102486.56;;;5.62;82.70
79221;BME280;68648;52.114;5.424;2023-04-30T00:27:38;102483.28;;;5.57;82.81
79221;BME280;68648;52.114;5.424;2023-04-30T00:30:06;102492.53;;;5.45;81.97
79221;BME280;68648;52.114;5.424;2023-04-30T00:32:33;102492.31;;;5.30;82.35
79221;BME280;68648;52.114;5.424;2023-04-30T00:35:00;102489.38;;;5.17;82.51
79221;BME280;68648;52.114;5.424;2023-04-30T00:37:26;102484.25;;;5.14;82.51
79221;BME280;68648;52.114;5.424;2023-04-30T00:39:54;102489.59;;;5.11;82.48
79221;BME280;68648;52.114;5.424;2023-04-30T00:42:21;102492.16;;;5.12;83.26
79221;BME280;68648;52.114;5.424;2023-04-30T00:44:47;102492.97;;;5.14;83.01
79221;BME280;68648;52.114;5.424;2023-04-30T00:47:14;102499.34;;;5.07;83.50
79221;BME280;68648;52.114;5.424;2023-04-30T00:49:41;102496.22;;;4.99;83.73
79221;BME280;68648;52.114;5.424;2023-04-30T00:52:07;102492.22;;;4.89;83.08
79221;BME280;68648;52.114;5.424;2023-04-30T00:54:34;102498.16;;;4.94;83.42
79221;BME280;68648;52.114;5.424;2023-04-30T00:57:01;102502.25;;;5.01;83.86
79221;BME280;68648;52.114;5.424;2023-04-30T00:59:31;102507.28;;;5.06;83.91
79221;BME280;68648;52.114;5.424;2023-04-30T01:02:00;102513.34;;;5.08;84.19
79221;BME280;68648;52.114;5.424;2023-04-30T01:04:28;102513.34;;;5.08;84.99
79221;BME280;68648;52.114;5.424;2023-04-30T01:06:55;102500.34;;;5.05;84.76
79221;BME280;68648;52.114;5.424;2023-04-30T01:09:22;102500.72;;;4.96;85.30
79221;BME280;68648;52.114;5.424;2023-04-30T01:12:19;102500.78;;;4.94;85.05
79221;BME280;68648;52.114;5.424;2023-04-30T01:15:00;102504.94;;;5.00;84.93
79221;BME280;68648;52.114;5.424;2023-04-30T01:20:14;102507.34;;;5.04;85.49
79221;BME280;68648;52.114;5.424;2023-04-30T01:28:15;102507.09;;;4.88;84.90
79221;BME280;68648;52.114;5.424;2023-04-30T01:30:42;102511.50;;;4.88;84.83
79221;BME280;68648;52.114;5.424;2023-04-30T01:33:13;102512.63;;;4.82;84.69
79221;BME280;68648;52.114;5.424;2023-04-30T01:35:45;102515.47;;;4.76;84.79
79221;BME280;68648;52.114;5.424;2023-04-30T01:41:10;102509.63;;;4.46;84.13
79221;BME280;68648;52.114;5.424;2023-04-30T01:43:54;102506.47;;;4.38;84.24
79221;BME280;68648;52.114;5.424;2023-04-30T01:49:07;102511.06;;;4.32;84.33
79221;BME280;68648;52.114;5.424;2023-04-30T01:51:42;102514.66;;;4.29;84.61
79221;BME280;68648;52.114;5.424;2023-04-30T01:54:34;102518.94;;;4.32;85.02
79221;BME280;68648;52.114;5.424;2023-04-30T01:57:12;102520.81;;;4.28;84.72
79221;BME280;68648;52.114;5.424;2023-04-30T01:59:41;102512.09;;;4.28;84.90
79221;BME280;68648;52.114;5.424;2023-04-30T02:02:08;102521.72;;;4.27;84.88
79221;BME280;68648;52.114;5.424;2023-04-30T02:04:35;102519.03;;;4.29;85.07
79221;BME280;68648;52.114;5.424;2023-04-30T02:07:01;102526.69;;;4.35;84.94
79221;BME280;68648;52.114;5.424;2023-04-30T02:09:31;102522.31;;;4.35;85.05
79221;BME280;68648;52.114;5.424;2023-04-30T02:11:57;102522.25;;;4.37;85.49
79221;BME280;68648;52.114;5.424;2023-04-30T02:14:24;102518.72;;;4.38;84.98
79221;BME280;68648;52.114;5.424;2023-04-30T02:16:50;102526.63;;;4.36;85.61
79221;BME280;68648;52.114;5.424;2023-04-30T02:19:17;102527.53;;;4.35;85.83
79221;BME280;68648;52.114;5.424;2023-04-30T02:21:43;102516.19;;;4.35;86.05
79221;BME280;68648;52.114;5.424;2023-04-30T02:24:10;102517.50;;;4.23;85.66
79221;BME280;68648;52.114;5.424;2023-04-30T02:26:36;102515.66;;;4.25;86.00
79221;BME280;68648;52.114;5.424;2023-04-30T02:29:03;102514.97;;;4.21;85.74
79221;BME280;68648;52.114;5.424;2023-04-30T02:31:32;102515.38;;;4.09;85.69
79221;BME280;68648;52.114;5.424;2023-04-30T02:33:59;102510.38;;;4.03;85.94
79221;BME280;68648;52.114;5.424;2023-04-30T02:36:25;102515.56;;;4.05;86.22
79221;BME280;68648;52.114;5.424;2023-04-30T02:38:52;102512.03;;;4.06;86.19
79221;BME280;68648;52.114;5.424;2023-04-30T02:41:18;102513.66;;;4.08;85.89
79221;BME280;68648;52.114;5.424;2023-04-30T02:43:45;102511.44;;;3.98;85.83
79221;BME280;68648;52.114;5.424;2023-04-30T02:46:12;102513.06;;;4.02;86.49
79221;BME280;68648;52.114;5.424;2023-04-30T02:48:38;102506.56;;;4.12;86.29
79221;BME280;68648;52.114;5.424;2023-04-30T02:51:05;102510.50;;;4.23;86.13
79221;BME280;68648;52.114;5.424;2023-04-30T02:53:33;102506.91;;;4.26;86.54
79221;BME280;68648;52.114;5.424;2023-04-30T02:56:00;102502.41;;;4.30;86.41
79221;BME280;68648;52.114;5.424;2023-04-30T02:58:27;102510.44;;;4.25;86.46
79221;BME280;68648;52.114;5.424;2023-04-30T03:00:53;102511.59;;;4.18;86.49
79221;BME280;68648;52.114;5.424;2023-04-30T03:03:20;102503.13;;;4.10;86.61
79221;BME280;68648;52.114;5.424;2023-04-30T03:05:47;102504.25;;;4.04;86.61
79221;BME280;68648;52.114;5.424;2023-04-30T03:08:13;102498.25;;;4.01;86.55
79221;BME280;68648;52.114;5.424;2023-04-30T03:10:40;102501.03;;;3.96;86.75
79221;BME280;68648;52.114;5.424;2023-04-30T03:13:06;102504.44;;;3.98;86.45
79221;BME280;68648;52.114;5.424;2023-04-30T03:15:33;102501.72;;;4.01;86.21
79221;BME280;68648;52.114;5.424;2023-04-30T03:17:59;102506.16;;;3.99;86.61
79221;BME280;68648;52.114;5.424;2023-04-30T03:20:26;102499.22;;;3.98;86.33
79221;BME280;68648;52.114;5.424;2023-04-30T03:22:53;102505.31;;;3.99;86.50
79221;BME280;68648;52.114;5.424;2023-04-30T03:25:20;102506.25;;;3.96;86.37
79221;BME280;68648;52.114;5.424;2023-04-30T03:27:46;102498.41;;;3.96;86.69
79221;BME280;68648;52.114;5.424;2023-04-30T03:30:13;102493.97;;;3.98;86.54
79221;BME280;68648;52.114;5.424;2023-04-30T03:32:39;102500.00;;;4.00;86.49
79221;BME280;68648;52.114;5.424;2023-04-30T03:35:07;102500.13;;;3.97;86.31
79221;BME280;68648;52.114;5.424;2023-04-30T03:37:33;102498.47;;;3.95;86.22
79221;BME280;68648;52.114;5.424;2023-04-30T03:40:00;102496.84;;;3.91;86.26
79221;BME280;68648;52.114;5.424;2023-04-30T03:42:27;102502.22;;;3.88;86.47
79221;BME280;68648;52.114;5.424;2023-04-30T03:44:54;102493.56;;;3.85;86.80
79221;BME280;68648;52.114;5.424;2023-04-30T03:47:20;102498.91;;;3.82;86.22
79221;BME280;68648;52.114;5.424;2023-04-30T03:49:47;102489.34;;;3.81;86.15
79221;BME280;68648;52.114;5.424;2023-04-30T03:52:20;102487.63;;;3.80;86.44
79221;BME280;68648;52.114;5.424;2023-04-30T03:54:48;102485.91;;;3.79;86.25
79221;BME280;68648;52.114;5.424;2023-04-30T03:57:15;102483.31;;;3.79;85.92
79221;BME280;68648;52.114;5.424;2023-04-30T03:59:41;102491.97;;;3.81;86.13
79221;BME280;68648;52.114;5.424;2023-04-30T04:02:08;102491.16;;;3.79;85.68
79221;BME280;68648;52.114;5.424;2023-04-30T04:04:35;102495.81;;;3.71;85.83
79221;BME280;68648;52.114;5.424;2023-04-30T04:07:01;102496.94;;;3.64;85.73
79221;BME280;68648;52.114;5.424;2023-04-30T04:09:29;102493.34;;;3.67;85.32
79221;BME280;68648;52.114;5.424;2023-04-30T04:11:56;102489.06;;;3.64;85.54
79221;BME280;68648;52.114;5.424;2023-04-30T04:14:23;102493.44;;;3.64;85.60
79221;BME280;68648;52.114;5.424;2023-04-30T04:16:49;102495.31;;;3.60;85.34
79221;BME280;68648;52.114;5.424;2023-04-30T04:19:16;102497.78;;;3.65;85.34
79221;BME280;68648;52.114;5.424;2023-04-30T04:21:42;102496.72;;;3.70;85.49
79221;BME280;68648;52.114;5.424;2023-04-30T04:24:09;102486.06;;;3.75;85.26
79221;BME280;68648;52.114;5.424;2023-04-30T04:26:38;102481.69;;;3.75;85.49
79221;BME280;68648;52.114;5.424;2023-04-30T04:29:07;102488.69;;;3.75;85.29
79221;BME280;68648;52.114;5.424;2023-04-30T04:31:34;102491.44;;;3.72;85.62
79221;BME280;68648;52.114;5.424;2023-04-30T04:34:02;102489.78;;;3.69;85.19
79221;BME280;68648;52.114;5.424;2023-04-30T04:36:30;102487.25;;;3.66;85.26
79221;BME280;68648;52.114;5.424;2023-04-30T04:38:57;102484.66;;;3.66;84.96
79221;BME280;68648;52.114;5.424;2023-04-30T04:41:28;102490.59;;;3.71;85.15
79221;BME280;68648;52.114;5.424;2023-04-30T04:43:55;102489.53;;;3.75;85.01
79221;BME280;68648;52.114;5.424;2023-04-30T04:46:23;102498.19;;;3.77;84.67
79221;BME280;68648;52.114;5.424;2023-04-30T04:48:50;102498.94;;;3.81;85.07
79221;BME280;68648;52.114;5.424;2023-04-30T04:51:17;102504.03;;;3.85;84.96
79221;BME280;68648;52.114;5.424;2023-04-30T04:53:44;102496.00;;;3.90;84.40
79221;BME280;68648;52.114;5.424;2023-04-30T04:56:10;102502.72;;;3.97;84.54
79221;BME280;68648;52.114;5.424;2023-04-30T04:58:38;102501.56;;;4.06;84.60
79221;BME280;68648;52.114;5.424;2023-04-30T05:01:05;102507.38;;;4.14;84.25
79221;BME280;68648;52.114;5.424;2023-04-30T05:03:32;102494.78;;;4.23;84.50
79221;BME280;68648;52.114;5.424;2023-04-30T05:05:58;102494.44;;;4.33;84.22
79221;BME280;68648;52.114;5.424;2023-04-30T05:08:27;102496.66;;;4.43;83.84
79221;BME280;68648;52.114;5.424;2023-04-30T05:10:53;102488.19;;;4.58;83.79
79221;BME280;68648;52.114;5.424;2023-04-30T05:13:21;102496.56;;;4.68;83.81
79221;BME280;68648;52.114;5.424;2023-04-30T05:15:52;102491.75;;;4.79;83.48
79221;BME280;68648;52.114;5.424;2023-04-30T05:18:19;102484.50;;;4.86;83.41
79221;BME280;68648;52.114;5.424;2023-04-30T05:20:46;102478.63;;;4.79;83.52
79221;BME280;68648;52.114;5.424;2023-04-30T05:23:14;102483.59;;;4.87;83.17
79221;BME280;68648;52.114;5.424;2023-04-30T05:25:41;102492.91;;;4.94;82.82
79221;BME280;68648;52.114;5.424;2023-04-30T05:28:07;102494.44;;;5.00;82.48
79221;BME280;68648;52.114;5.424;2023-04-30T05:30:34;102499.72;;;5.20;82.92
79221;BME280;68648;52.114;5.424;2023-04-30T05:33:01;102499.75;;;5.40;83.09
79221;BME280;68648;52.114;5.424;2023-04-30T05:35:27;102503.44;;;5.56;82.50
79221;BME280;68648;52.114;5.424;2023-04-30T05:37:55;102502.16;;;5.85;82.75
79221;BME280;68648;52.114;5.424;2023-04-30T05:40:22;102509.13;;;6.07;82.40
79221;BME280;68648;52.114;5.424;2023-04-30T05:42:48;102508.97;;;6.30;82.13
79221;BME280;68648;52.114;5.424;2023-04-30T05:45:15;102513.59;;;6.44;81.29
79221;BME280;68648;52.114;5.424;2023-04-30T05:47:42;102522.53;;;6.58;81.44
79221;BME280;68648;52.114;5.424;2023-04-30T05:50:10;102518.19;;;6.76;81.51
79221;BME280;68648;52.114;5.424;2023-04-30T05:52:37;102517.38;;;7.12;81.25
79221;BME280;68648;52.114;5.424;2023-04-30T05:55:04;102523.44;;;8.64;79.73
79221;BME280;68648;52.114;5.424;2023-04-30T05:57:35;102527.56;;;10.48;74.01
79221;BME280;68648;52.114;5.424;2023-04-30T06:00:01;102528.41;;;11.83;70.74
79221;BME280;68648;52.114;5.424;2023-04-30T06:02:30;102520.88;;;13.59;63.96
79221;BME280;68648;52.114;5.424;2023-04-30T06:04:57;102525.31;;;14.16;61.14
79221;BME280;68648;52.114;5.424;2023-04-30T06:07:25;102520.50;;;15.09;58.09
79221;BME280;68648;52.114;5.424;2023-04-30T06:09:51;102532.63;;;15.66;56.25
79221;BME280;68648;52.114;5.424;2023-04-30T06:12:19;102525.78;;;16.55;53.28
79221;BME280;68648;52.114;5.424;2023-04-30T06:14:46;102529.13;;;17.06;50.48
79221;BME280;68648;52.114;5.424;2023-04-30T06:17:13;102535.16;;;16.39;49.79
79221;BME280;68648;52.114;5.424;2023-04-30T06:19:41;102536.31;;;16.56;50.62
79221;BME280;68648;52.114;5.424;2023-04-30T06:22:08;102536.06;;;17.28;49.01
79221;BME280;68648;52.114;5.424;2023-04-30T06:24:34;102546.00;;;15.87;50.28
79221;BME280;68648;52.114;5.424;2023-04-30T06:27:02;102542.88;;;14.63;53.04
79221;BME280;68648;52.114;5.424;2023-04-30T06:29:28;102538.91;;;14.24;54.94
79221;BME280;68648;52.114;5.424;2023-04-30T06:31:55;102537.59;;;13.61;56.34
79221;BME280;68648;52.114;5.424;2023-04-30T06:34:22;102536.88;;;13.36;58.32
79221;BME280;68648;52.114;5.424;2023-04-30T06:36:49;102535.69;;;13.16;58.07
79221;BME280;68648;52.114;5.424;2023-04-30T06:39:16;102534.03;;;13.15;59.04
79221;BME280;68648;52.114;5.424;2023-04-30T06:41:42;102535.81;;;12.29;59.89
79221;BME280;68648;52.114;5.424;2023-04-30T06:44:09;102542.06;;;11.77;61.88
79221;BME280;68648;52.114;5.424;2023-04-30T06:46:36;102541.94;;;11.66;63.60
79221;BME280;68648;52.114;5.424;2023-04-30T06:49:03;102539.78;;;11.71;63.64
79221;BME280;68648;52.114;5.424;2023-04-30T06:51:30;102539.47;;;11.63;64.12
79221;BME280;68648;52.114;5.424;2023-04-30T06:53:56;102544.13;;;11.72;63.29
79221;BME280;68648;52.114;5.424;2023-04-30T06:56:23;102543.03;;;11.36;64.30
79221;BME280;68648;52.114;5.424;2023-04-30T06:58:50;102535.47;;;11.30;65.09
79221;BME280;68648;52.114;5.424;2023-04-30T07:01:17;102537.16;;;11.31;65.07
79221;BME280;68648;52.114;5.424;2023-04-30T07:03:44;102539.66;;;11.47;65.17
79221;BME280;68648;52.114;5.424;2023-04-30T07:06:10;102547.06;;;11.42;65.53
79221;BME280;68648;52.114;5.424;2023-04-30T07:08:37;102539.09;;;11.42;66.42
79221;BME280;68648;52.114;5.424;2023-04-30T07:11:06;102545.94;;;11.58;65.35
79221;BME280;68648;52.114;5.424;2023-04-30T07:13:33;102551.31;;;11.44;65.02
79221;BME280;68648;52.114;5.424;2023-04-30T07:16:00;102545.16;;;11.44;65.21
79221;BME280;68648;52.114;5.424;2023-04-30T07:18:27;102549.22;;;11.49;64.89
79221;BME280;68648;52.114;5.424;2023-04-30T07:20:54;102551.78;;;11.64;64.38
79221;BME280;68648;52.114;5.424;2023-04-30T07:23:20;102553.84;;;11.85;65.38
79221;BME280;68648;52.114;5.424;2023-04-30T07:25:47;102553.03;;;11.71;64.49
79221;BME280;68648;52.114;5.424;2023-04-30T07:28:14;102551.78;;;11.64;64.17
79221;BME280;68648;52.114;5.424;2023-04-30T07:30:41;102559.63;;;11.65;64.27
79221;BME280;68648;52.114;5.424;2023-04-30T07:33:08;102564.59;;;11.57;64.45
79221;BME280;68648;52.114;5.424;2023-04-30T07:35:34;102552.59;;;11.51;63.82
79221;BME280;68648;52.114;5.424;2023-04-30T07:38:02;102556.63;;;11.57;63.96
79221;BME280;68648;52.114;5.424;2023-04-30T07:40:30;102550.69;;;11.53;64.55
79221;BME280;68648;52.114;5.424;2023-04-30T07:43:02;102556.34;;;11.62;65.00
79221;BME280;68648;52.114;5.424;2023-04-30T07:45:30;102550.94;;;11.63;64.37
79221;BME280;68648;52.114;5.424;2023-04-30T07:47:57;102555.94;;;11.68;63.65
79221;BME280;68648;52.114;5.424;2023-04-30T07:50:23;102551.16;;;11.73;64.22
79221;BME280;68648;52.114;5.424;2023-04-30T07:52:55;102552.81;;;11.61;63.91
79221;BME280;68648;52.114;5.424;2023-04-30T07:55:22;102544.78;;;11.75;63.78
79221;BME280;68648;52.114;5.424;2023-04-30T07:57:48;102544.00;;;12.00;64.38
79221;BME280;68648;52.114;5.424;2023-04-30T08:00:15;102541.03;;;12.30;64.66
79221;BME280;68648;52.114;5.424;2023-04-30T08:02:42;102541.94;;;12.54;63.14
79221;BME280;68648;52.114;5.424;2023-04-30T08:05:11;102537.88;;;12.61;62.99
79221;BME280;68648;52.114;5.424;2023-04-30T08:07:38;102538.00;;;12.60;62.26
79221;BME280;68648;52.114;5.424;2023-04-30T08:10:05;102542.44;;;12.59;63.23
79221;BME280;68648;52.114;5.424;2023-04-30T08:12:35;102543.38;;;12.71;62.45
79221;BME280;68648;52.114;5.424;2023-04-30T08:15:03;102540.28;;;13.01;63.29
79221;BME280;68648;52.114;5.424;2023-04-30T08:17:34;102536.78;;;13.01;61.48
79221;BME280;68648;52.114;5.424;2023-04-30T08:20:02;102544.81;;;12.88;61.55
79221;BME280;68648;52.114;5.424;2023-04-30T08:22:29;102539.34;;;13.02;61.02
79221;BME280;68648;52.114;5.424;2023-04-30T08:24:56;102534.50;;;13.20;61.54
79221;BME280;68648;52.114;5.424;2023-04-30T08:27:30;102543.81;;;13.49;60.88
79221;BME280;68648;52.114;5.424;2023-04-30T08:29:57;102542.28;;;13.58;59.30
79221;BME280;68648;52.114;5.424;2023-04-30T08:32:24;102538.56;;;13.72;59.38
79221;BME280;68648;52.114;5.424;2023-04-30T08:34:51;102548.22;;;13.61;58.26
79221;BME280;68648;52.114;5.424;2023-04-30T08:37:18;102545.03;;;13.21;59.21
79221;BME280;68648;52.114;5.424;2023-04-30T08:39:45;102545.06;;;13.09;59.87
79221;BME280;68648;52.114;5.424;2023-04-30T08:42:13;102543.22;;;13.46;60.21
79221;BME280;68648;52.114;5.424;2023-04-30T08:44:40;102548.88;;;13.76;59.84
79221;BME280;68648;52.114;5.424;2023-04-30T08:47:10;102541.28;;;14.05;59.82
79221;BME280;68648;52.114;5.424;2023-04-30T08:49:40;102537.06;;;14.02;56.85
79221;BME280;68648;52.114;5.424;2023-04-30T08:52:07;102534.38;;;13.91;57.13
79221;BME280;68648;52.114;5.424;2023-04-30T08:54:37;102537.94;;;14.25;58.15
79221;BME280;68648;52.114;5.424;2023-04-30T08:57:04;102536.84;;;14.39;57.15
79221;BME280;68648;52.114;5.424;2023-04-30T08:59:31;102535.41;;;14.57;57.15
79221;BME280;68648;52.114;5.424;2023-04-30T09:01:59;102535.53;;;14.56;55.49
79221;BME280;68648;52.114;5.424;2023-04-30T09:04:27;102529.84;;;14.60;53.74
79221;BME280;68648;52.114;5.424;2023-04-30T09:06:53;102534.06;;;14.74;53.14
79221;BME280;68648;52.114;5.424;2023-04-30T09:09:28;102531.13;;;14.66;53.70
79221;BME280;68648;52.114;5.424;2023-04-30T09:12:16;102531.97;;;14.78;54.08
79221;BME280;68648;52.114;5.424;2023-04-30T09:17:31;102535.00;;;14.62;54.08
79221;BME280;68648;52.114;5.424;2023-04-30T09:20:09;102528.31;;;14.79;53.80
79221;BME280;68648;52.114;5.424;2023-04-30T09:22:37;102525.28;;;14.83;54.74
79221;BME280;68648;52.114;5.424;2023-04-30T09:25:06;102523.25;;;15.19;55.59
79221;BME280;68648;52.114;5.424;2023-04-30T09:27:33;102532.03;;;15.42;52.93
79221;BME280;68648;52.114;5.424;2023-04-30T09:30:00;102526.31;;;15.67;53.69
79221;BME280;68648;52.114;5.424;2023-04-30T09:32:26;102521.03;;;15.77;53.27
79221;BME280;68648;52.114;5.424;2023-04-30T09:34:56;102525.06;;;15.50;53.09
79221;BME280;68648;52.114;5.424;2023-04-30T09:37:42;102511.66;;;15.09;52.60
79221;BME280;68648;52.114;5.424;2023-04-30T09:40:09;102514.75;;;15.46;52.93
79221;BME280;68648;52.114;5.424;2023-04-30T09:42:37;102521.38;;;15.83;53.36
79221;BME280;68648;52.114;5.424;2023-04-30T09:45:04;102514.06;;;16.06;52.41
79221;BME280;68648;52.114;5.424;2023-04-30T09:47:31;102515.31;;;16.02;50.32
79221;BME280;68648;52.114;5.424;2023-04-30T09:49:59;102515.44;;;16.00;49.69
79221;BME280;68648;52.114;5.424;2023-04-30T09:52:26;102512.53;;;15.83;49.41
79221;BME280;68648;52.114;5.424;2023-04-30T09:54:52;102514.09;;;15.64;49.94
79221;BME280;68648;52.114;5.424;2023-04-30T09:57:22;102503.28;;;15.87;50.26
79221;BME280;68648;52.114;5.424;2023-04-30T09:59:51;102510.44;;;16.17;50.32
79221;BME280;68648;52.114;5.424;2023-04-30T10:02:18;102504.78;;;16.10;50.35
79221;BME280;68648;52.114;5.424;2023-04-30T10:04:48;102494.91;;;16.01;52.30
79221;BME280;68648;52.114;5.424;2023-04-30T10:07:19;102497.88;;;16.07;52.04
79221;BME280;68648;52.114;5.424;2023-04-30T10:09:50;102502.84;;;15.91;48.91
79221;BME280;68648;52.114;5.424;2023-04-30T10:12:25;102488.44;;;15.73;48.87
79221;BME280;68648;52.114;5.424;2023-04-30T10:14:58;102489.09;;;15.86;48.68
79221;BME280;68648;52.114;5.424;2023-04-30T10:17:30;102491.75;;;16.17;51.03
79221;BME280;68648;52.114;5.424;2023-04-30T10:20:02;102479.31;;;16.36;47.93
79221;BME280;68648;52.114;5.424;2023-04-30T10:22:33;102486.16;;;16.20;48.30
79221;BME280;68648;52.114;5.424;2023-04-30T10:25:02;102482.19;;;16.14;48.46
79221;BME280;68648;52.114;5.424;2023-04-30T10:27:29;102483.34;;;16.21;49.72
79221;BME280;68648;52.114;5.424;2023-04-30T10:29:56;102489.66;;;16.20;47.21
79221;BME280;68648;52.114;5.424;2023-04-30T10:32:27;102482.09;;;15.95;47.41
79221;BME280;68648;52.114;5.424;2023-04-30T10:35:23;102472.44;;;16.03;47.92
79221;BME280;68648;52.114;5.424;2023-04-30T10:38:00;102476.13;;;16.12;47.43
79221;BME280;68648;52.114;5.424;2023-04-30T10:40:35;102464.41;;;16.34;47.58
79221;BME280;68648;52.114;5.424;2023-04-30T10:43:02;102471.53;;;16.73;48.59
79221;BME280;68648;52.114;5.424;2023-04-30T10:45:36;102465.25;;;16.84;46.60
79221;BME280;68648;52.114;5.424;2023-04-30T10:48:04;102465.06;;;16.76;46.17
79221;BME280;68648;52.114;5.424;2023-04-30T10:50:32;102461.88;;;17.01;46.13
79221;BME280;68648;52.114;5.424;2023-04-30T10:53:05;102464.13;;;17.16;47.05
79221;BME280;68648;52.114;5.424;2023-04-30T10:55:46;102460.84;;;17.51;47.54
79221;BME280;68648;52.114;5.424;2023-04-30T10:58:29;102453.47;;;17.62;45.80
79221;BME280;68648;52.114;5.424;2023-04-30T11:01:01;102448.84;;;17.55;45.77
79221;BME280;68648;52.114;5.424;2023-04-30T11:03:29;102455.44;;;17.70;45.00
79221;BME280;68648;52.114;5.424;2023-04-30T11:05:56;102446.34;;;17.53;45.40
79221;BME280;68648;52.114;5.424;2023-04-30T11:08:33;102439.03;;;17.36;45.13
79221;BME280;68648;52.114;5.424;2023-04-30T11:11:00;102433.38;;;17.39;45.47
79221;BME280;68648;52.114;5.424;2023-04-30T11:13:27;102432.06;;;17.72;47.25
79221;BME280;68648;52.114;5.424;2023-04-30T11:16:01;102427.97;;;18.05;46.85
79221;BME280;68648;52.114;5.424;2023-04-30T11:18:29;102429.34;;;18.36;45.52
79221;BME280;68648;52.114;5.424;2023-04-30T11:20:56;102426.34;;;18.49;44.91
79221;BME280;68648;52.114;5.424;2023-04-30T11:23:25;102424.22;;;17.98;44.66
79221;BME280;68648;52.114;5.424;2023-04-30T11:26:08;102423.88;;;17.73;45.93
79221;BME280;68648;52.114;5.424;2023-04-30T11:28:36;102414.63;;;17.68;44.65
79221;BME280;68648;52.114;5.424;2023-04-30T11:31:03;102422.25;;;18.00;45.71
79221;BME280;68648;52.114;5.424;2023-04-30T11:33:32;102415.53;;;18.13;44.58
79221;BME280;68648;52.114;5.424;2023-04-30T11:36:00;102408.84;;;18.45;44.53
79221;BME280;68648;52.114;5.424;2023-04-30T11:38:33;102410.25;;;18.22;43.06
79221;BME280;68648;52.114;5.424;2023-04-30T11:41:01;102397.28;;;18.44;43.69
79221;BME280;68648;52.114;5.424;2023-04-30T11:43:30;102401.72;;;18.53;41.89
79221;BME280;68648;52.114;5.424;2023-04-30T11:46:08;102401.41;;;18.66;45.69
79221;BME280;68648;52.114;5.424;2023-04-30T11:48:38;102391.81;;;18.99;44.92
79221;BME280;68648;52.114;5.424;2023-04-30T11:51:25;102392.69;;;19.08;43.84
79221;BME280;68648;52.114;5.424;2023-04-30T11:53:54;102384.06;;;18.96;41.17
79221;BME280;68648;52.114;5.424;2023-04-30T11:56:22;102389.34;;;18.70;41.11
79221;BME280;68648;52.114;5.424;2023-04-30T11:58:51;102374.00;;;18.45;41.83
79221;BME280;68648;52.114;5.424;2023-04-30T12:01:19;102381.78;;;18.66;42.09
79221;BME280;68648;52.114;5.424;2023-04-30T12:03:48;102380.41;;;18.62;44.73
79221;BME280;68648;52.114;5.424;2023-04-30T12:06:26;102376.03;;;18.61;43.80
79221;BME280;68648;52.114;5.424;2023-04-30T12:08:54;102375.31;;;18.94;42.10
79221;BME280;68648;52.114;5.424;2023-04-30T12:11:23;102380.00;;;18.92;40.92
79221;BME280;68648;52.114;5.424;2023-04-30T12:13:57;102365.56;;;19.11;41.26
79221;BME280;68648;52.114;5.424;2023-04-30T12:16:42;102365.94;;;19.42;43.23
79221;BME280;68648;52.114;5.424;2023-04-30T12:19:11;102365.91;;;19.60;40.19
79221;BME280;68648;52.114;5.424;2023-04-30T12:21:40;102356.53;;;19.64;40.05
79221;BME280;68648;52.114;5.424;2023-04-30T12:24:10;102362.91;;;19.71;39.76
79221;BME280;68648;52.114;5.424;2023-04-30T12:26:38;102359.53;;;19.69;38.72
79221;BME280;68648;52.114;5.424;2023-04-30T12:29:21;102352.78;;;19.99;38.83
79221;BME280;68648;52.114;5.424;2023-04-30T12:31:48;102360.97;;;20.47;40.14
79221;BME280;68648;52.114;5.424;2023-04-30T12:34:16;102363.03;;;20.62;37.42
79221;BME280;68648;52.114;5.424;2023-04-30T12:36:44;102353.22;;;20.28;37.35
79221;BME280;68648;52.114;5.424;2023-04-30T12:39:12;102353.09;;;20.62;36.81
79221;BME280;68648;52.114;5.424;2023-04-30T12:41:43;102349.06;;;21.07;35.18
79221;BME280;68648;52.114;5.424;2023-04-30T12:44:16;102338.06;;;21.49;35.41
79221;BME280;68648;52.114;5.424;2023-04-30T12:46:44;102336.56;;;21.85;36.23
79221;BME280;68648;52.114;5.424;2023-04-30T12:49:32;102344.41;;;22.03;37.14
79221;BME280;68648;52.114;5.424;2023-04-30T12:54:30;102347.31;;;19.48;39.39
79221;BME280;68648;52.114;5.424;2023-04-30T12:57:07;102340.38;;;20.14;37.67
79221;BME280;68648;52.114;5.424;2023-04-30T12:59:50;102335.63;;;20.82;36.39
79221;BME280;68648;52.114;5.424;2023-04-30T13:02:27;102322.28;;;21.38;36.59
79221;BME280;68648;52.114;5.424;2023-04-30T13:04:56;102320.00;;;22.05;35.90
79221;BME280;68648;52.114;5.424;2023-04-30T13:07:24;102327.97;;;22.44;33.84
79221;BME280;68648;52.114;5.424;2023-04-30T13:09:51;102305.09;;;21.78;33.30
79221;BME280;68648;52.114;5.424;2023-04-30T13:12:18;102318.25;;;22.34;31.73
79221;BME280;68648;52.114;5.424;2023-04-30T13:14:46;102316.72;;;22.40;35.02
79221;BME280;68648;52.114;5.424;2023-04-30T13:17:13;102311.81;;;22.58;34.10
79221;BME280;68648;52.114;5.424;2023-04-30T13:19:40;102301.78;;;22.90;32.92
79221;BME280;68648;52.114;5.424;2023-04-30T13:22:07;102303.91;;;22.80;34.45